Latest Weather Observations for Rhyll

IDV60901

Issued at 6:11 pm EDT Wednesday 4 March 2015 (issued every 10 minutes, with the page automatically refreshed every 10 minutes)

About weather observations | Map of Melbourne area stations | Latest observations for Melbourne area | Other Formats
Station Details ID: 086373 Name: RHYLL Lat: -38.46 Lon: 145.31 Height: 13.4 m
Data from the previous 72 hours. | See also: Recent months at Rhyll
Date/Time
EDT
Tmp

°C
App
Tmp
°C
Dew
Point
°C
Rel
Hum
%
Delta-T

°C
Wind Press
QNH
hPa
Press
MSL
hPa
Rain
since
9 am
mm
Dir
 
Spd
km/h
Gust
km/h
Spd
kts
Gust
kts
04/06:00pm 21.7 19.7 11.4 52 5.7 W 13 22 7 12 1009.9 1009.8 0.0
04/05:30pm 21.6 19.9 11.3 52 5.7 W 11 22 6 12 1010.1 1010.0 0.0
04/05:00pm 20.8 18.0 11.2 54 5.3 W 17 32 9 17 1010.4 1010.3 0.0
04/04:30pm 20.6 19.6 12.3 59 4.7 NW 9 17 5 9 1010.7 1010.6 0.0
04/04:00pm 20.4 19.2 11.6 57 4.9 W 9 19 5 10 1011.2 1011.1 0.0
04/03:30pm 20.6 19.4 11.5 56 5.0 WNW 9 19 5 10 1011.5 1011.4 0.0
04/03:00pm 20.2 18.6 11.4 57 4.9 NW 11 20 6 11 1012.0 1011.9 0.0
04/02:30pm 20.1 18.9 11.6 58 4.7 NW 9 20 5 11 1012.4 1012.3 0.0
04/02:00pm 20.6 19.0 11.5 56 5.0 NW 11 22 6 12 1012.5 1012.4 0.0
04/01:30pm 20.0 18.4 11.5 58 4.7 WNW 11 20 6 11 1012.9 1012.8 0.0
04/01:00pm 19.9 17.8 11.1 57 4.8 NW 13 20 7 11 1013.3 1013.2 0.0
04/12:30pm 20.2 18.6 11.4 57 4.9 WNW 11 20 6 11 1013.8 1013.8 0.0
04/12:00pm 19.7 17.9 10.7 56 4.9 WNW 11 22 6 12 1014.2 1014.2 0.0
04/11:30am 18.9 17.6 11.2 61 4.2 WNW 9 20 5 11 1014.6 1014.6 0.0
04/11:00am 19.2 18.0 11.7 62 4.1 WNW 9 19 5 10 1014.7 1014.7 0.0
04/10:30am 17.8 16.3 11.8 68 3.3 WNW 11 22 6 12 1014.9 1014.9 0.0
04/10:00am 17.5 15.9 11.5 68 3.3 NW 11 19 6 10 1014.8 1014.8 0.0
04/09:30am 17.2 15.6 11.5 69 3.1 WNW 11 20 6 11 1014.8 1014.8 0.0
04/09:00am 16.7 15.1 11.6 72 2.8 NW 11 24 6 13 1014.7 1014.7 0.0
04/08:30am 16.3 15.1 11.5 73 2.6 NW 9 22 5 12 1014.6 1014.6 0.0
04/08:00am 15.8 14.9 11.4 75 2.4 WNW 7 15 4 8 1014.4 1014.4 0.0
04/07:30am 15.4 14.0 11.0 75 2.3 WNW 9 19 5 10 1014.4 1014.4 0.0
04/07:00am 15.6 14.7 11.2 75 2.4 WNW 7 13 4 7 1014.2 1014.2 0.0
04/06:30am 15.7 14.7 11.1 74 2.5 W 7 13 4 7 1014.0 1014.0 0.0
04/06:00am 15.4 14.5 10.8 74 2.4 W 6 11 3 6 1014.0 1014.0 0.0
04/05:30am 15.8 14.9 11.2 74 2.5 W 7 15 4 8 1014.2 1014.2 0.0
04/05:00am 15.8 14.9 11.2 74 2.5 W 7 11 4 6 1014.2 1014.2 0.0
04/04:30am 15.9 15.3 11.7 76 2.3 W 6 9 3 5 1014.3 1014.3 0.0
04/04:00am 15.9 15.3 11.7 76 2.3 W 6 7 3 4 1014.6 1014.6 0.0
04/03:30am 15.7 14.9 11.1 74 2.5 W 6 7 3 4 1014.7 1014.7 0.0
04/03:00am 15.1 14.3 10.9 76 2.2 W 6 7 3 4 1014.9 1014.9 0.0
04/02:30am 14.9 14.0 10.7 76 2.2 W 6 7 3 4 1015.1 1015.1 0.0
04/02:00am 14.9 14.0 10.7 76 2.2 W 6 9 3 5 1015.4 1015.4 0.0
04/01:30am 15.5 14.5 10.9 74 2.4 WSW 7 13 4 7 1015.6 1015.6 0.0
04/01:00am 15.4 14.4 11.0 75 2.3 SW 7 13 4 7 1015.8 1015.8 0.0
04/12:30am 15.5 14.6 11.3 76 2.3 SW 7 11 4 6 1016.1 1016.1 0.0
04/12:00am 15.6 14.9 12.0 79 2.0 SW 7 9 4 5 1016.3 1016.3 0.0
 
Date/Time
EDT
Tmp

°C
App
Tmp
°C
Dew
Point
°C
Rel
Hum
%
Delta-T

°C
Wind Press
QNH
hPa
Press
MSL
hPa
Rain
since
9 am
mm
Dir
 
Spd
km/h
Gust
km/h
Spd
kts
Gust
kts
03/11:30pm 15.8 15.3 12.0 78 2.1 SW 6 11 3 6 1016.5 1016.5 0.0
03/11:00pm 15.6 14.8 11.2 75 2.4 SW 6 9 3 5 1016.6 1016.6 0.0
03/10:30pm 15.9 15.2 11.9 77 2.2 SW 7 9 4 5 1016.8 1016.8 0.0
03/10:00pm 16.1 15.4 11.9 76 2.3 SW 7 11 4 6 1016.8 1016.8 0.0
03/09:30pm 16.1 15.8 11.5 74 2.5 WSW 4 6 2 3 1016.6 1016.6 0.0
03/09:00pm 16.1 15.4 11.3 73 2.6 SW 6 7 3 4 1016.4 1016.4 0.0
03/08:30pm 16.6 15.7 11.5 72 2.8 SW 7 11 4 6 1016.2 1016.2 0.0
03/08:00pm 17.0 15.7 11.3 69 3.1 SW 9 13 5 7 1015.9 1015.9 0.0
03/07:30pm 18.1 16.8 11.2 64 3.7 SW 9 15 5 8 1015.8 1015.8 0.0
03/07:00pm 19.5 18.8 11.5 60 4.4 S 6 11 3 6 1015.7 1015.7 0.0
03/06:30pm 19.5 18.8 11.5 60 4.4 S 6 9 3 5 1015.6 1015.6 0.0
03/06:00pm 20.1 19.4 11.3 57 4.8 S 6 9 3 5 1015.6 1015.6 0.0
03/05:30pm 20.4 19.7 11.3 56 5.0 S 6 9 3 5 1015.7 1015.7 0.0
03/05:00pm 21.1 20.2 11.2 53 5.5 S 7 13 4 7 1015.7 1015.7 0.0
03/04:30pm 20.6 19.4 11.5 56 5.0 SSE 9 13 5 7 1016.0 1016.0 0.0
03/04:00pm 21.0 19.7 11.1 53 5.4 S 9 17 5 9 1016.2 1016.2 0.0
03/03:30pm 20.8 19.0 10.9 53 5.4 S 11 22 6 12 1016.5 1016.5 0.0
03/03:00pm 22.3 20.8 12.0 52 5.8 S 11 20 6 11 1016.6 1016.6 0.0
03/02:30pm 22.3 20.9 12.3 53 5.7 S 11 17 6 9 1016.9 1016.9 0.0
03/02:00pm 21.6 20.0 11.6 53 5.6 SSE 11 19 6 10 1016.9 1016.9 0.0
03/01:30pm 20.8 19.9 11.2 54 5.3 SSE 7 13 4 7 1017.1 1017.1 0.0
03/01:00pm 21.6 21.0 12.2 55 5.3 SSE 7 11 4 6 1017.3 1017.3 0.0
03/12:30pm 20.8 19.8 10.9 53 5.4 S 7 13 4 7 1017.6 1017.6 0.0
03/12:00pm 21.1 20.3 11.7 55 5.2 SSE 7 13 4 7 1017.8 1017.8 0.0
03/11:30am 20.9 20.0 11.5 55 5.2 SSE 7 13 4 7 1017.8 1017.8 0.0
03/11:00am 19.8 19.3 12.6 63 4.0 S 7 15 4 8 1017.9 1017.9 0.0
03/10:30am 19.6 19.1 12.8 65 3.8 S 7 17 4 9 1017.7 1017.7 0.0
03/10:00am 19.4 18.8 12.2 63 4.0 S 7 13 4 7 1017.7 1017.7 0.0
03/09:30am 18.9 17.8 13.1 69 3.3 S 11 20 6 11 1017.4 1017.4 0.0
03/09:00am 18.3 17.5 13.0 71 3.0 S 9 19 5 10 1017.1 1017.1 0.0
03/08:30am 17.3 17.6 13.4 78 2.2 SW 4 4 2 2 1016.9 1016.9 0.0
03/08:00am 16.1 16.2 12.7 80 1.9 SW 4 6 2 3 1016.8 1016.8 0.0
03/07:30am 15.9 15.9 12.5 80 1.9 SW 4 6 2 3 1016.6 1016.6 0.0
03/07:00am 15.8 15.7 12.2 79 2.0 SW 4 6 2 3 1016.0 1016.0 0.0
03/06:30am 15.9 15.4 12.1 78 2.1 SW 6 7 3 4 1015.9 1015.9 0.0
03/06:00am 16.0 15.5 12.0 77 2.2 WSW 6 7 3 4 1015.5 1015.5 0.0
03/05:30am 15.9 15.7 11.9 77 2.2 WSW 4 6 2 3 1015.3 1015.3 0.0
03/05:00am 15.9 15.7 11.7 76 2.3 WSW 4 6 2 3 1015.2 1015.2 0.0
03/04:30am 16.3 15.7 11.7 74 2.5 SW 6 7 3 4 1015.1 1015.1 0.0
03/04:00am 17.1 16.4 12.0 72 2.8 SSW 7 11 4 6 1015.1 1015.1 0.0
03/03:30am 16.7 16.1 11.6 72 2.8 SW 6 9 3 5 1015.2 1015.2 0.0
03/03:00am 17.0 16.1 11.5 70 3.0 SW 7 11 4 6 1015.7 1015.7 0.0
03/02:30am 17.0 17.0 12.3 74 2.6 WSW 4 6 2 3 1015.6 1015.6 0.0
03/02:00am 17.2 16.9 13.3 78 2.2 SW 7 9 4 5 1015.8 1015.8 0.0
03/01:30am 17.2 17.7 14.1 82 1.8 WSW 4 6 2 3 1015.8 1015.8 0.0
03/01:00am 17.6 18.4 14.7 83 1.7 S 4 7 2 4 1015.5 1015.5 0.0
03/12:30am 17.6 18.3 14.5 82 1.8 SE 4 7 2 4 1015.2 1015.2 0.0
03/12:00am 17.5 18.2 14.6 83 1.7 SSE 4 7 2 4 1015.4 1015.4 0.0
 
Date/Time
EDT
Tmp

°C
App
Tmp
°C
Dew
Point
°C
Rel
Hum
%
Delta-T

°C
Wind Press
QNH
hPa
Press
MSL
hPa
Rain
since
9 am
mm
Dir
 
Spd
km/h
Gust
km/h
Spd
kts
Gust
kts
02/11:30pm 17.9 18.8 15.0 83 1.7 SE 4 7 2 4 1015.6 1015.6 0.0
02/11:00pm 18.1 18.2 15.4 84 1.6 ESE 9 13 5 7 1015.7 1015.7 0.0
02/10:30pm 18.1 18.1 15.2 83 1.7 ESE 9 17 5 9 1015.9 1015.9 0.0
02/10:00pm 17.9 18.2 15.0 83 1.7 SSE 7 13 4 7 1015.8 1015.8 0.0
02/09:30pm 18.1 18.3 14.8 81 1.9 SE 7 11 4 6 1015.6 1015.6 0.0
02/09:00pm 18.0 17.7 14.5 80 2.0 SE 9 13 5 7 1015.3 1015.3 0.0
02/08:30pm 17.8 17.5 14.3 80 2.0 SSE 9 13 5 7 1015.2 1015.2 0.0
02/08:00pm 17.7 17.2 13.8 78 2.2 S 9 13 5 7 1015.0 1015.0 0.0
02/07:30pm 18.4 18.3 13.9 75 2.6 S 7 11 4 6 1014.9 1014.9 0.0
02/07:00pm 18.8 18.2 13.6 72 3.0 SSE 9 15 5 8 1014.5 1014.5 0.0
02/06:30pm 19.4 18.7 14.2 72 3.0 SSE 11 15 6 8 1014.3 1014.3 0.0
02/06:00pm 19.6 18.6 13.5 68 3.5 SSE 11 17 6 9 1014.2 1014.2 0.0
02/05:30pm 20.2 19.6 13.4 65 3.9 SE 9 13 5 7 1014.1 1014.1 0.0
02/05:00pm 20.3 19.8 12.5 61 4.4 SE 7 11 4 6 1014.4 1014.4 0.0
02/04:30pm 20.9 20.4 12.6 59 4.7 SSE 7 13 4 7 1014.8 1014.8 0.0
02/04:00pm 20.7 20.2 12.1 58 4.8 SE 6 9 3 5 1014.6 1014.6 0.0
02/03:30pm 20.1 19.7 12.3 61 4.4 SE 6 9 3 5 1015.5 1015.5 0.0
02/03:00pm 19.7 18.9 11.2 58 4.7 SSE 6 9 3 5 1015.3 1015.3 0.0
02/02:30pm 20.6 20.0 11.8 57 4.9 SSE 6 11 3 6 1016.2 1016.2 0.0
02/02:00pm 20.8 20.0 11.2 54 5.3 SSE 6 9 3 5 1016.1 1016.1 0.0
02/01:30pm 20.3 19.5 9.8 51 5.6 SSE 4 6 2 3 1016.6 1016.6 0.0
02/01:00pm 20.8 19.7 10.0 50 5.8 SSE 6 9 3 5 1016.8 1016.8 0.0
02/12:30pm 21.3 20.1 10.2 49 6.0 E 7 11 4 6 1017.3 1017.3 0.0
02/12:00pm 21.4 19.8 10.3 49 6.0 E 9 13 5 7 1017.7 1017.7 0.0
02/11:30am 20.6 18.9 9.8 50 5.8 ENE 9 15 5 8 1017.9 1017.9 0.0
02/11:00am 19.8 17.5 9.1 50 5.6 NE 11 17 6 9 1018.4 1018.4 0.0
02/10:30am 20.5 17.9 10.6 53 5.4 ENE 15 20 8 11 1018.5 1018.5 0.0
02/10:00am 19.2 17.6 10.2 56 4.8 E 9 13 5 7 1018.8 1018.8 0.0
02/09:30am 18.0 16.1 10.6 62 4.0 ENE 11 15 6 8 1018.6 1018.6 0.0
02/09:00am 17.7 15.7 11.5 67 3.4 ENE 13 17 7 9 1018.5 1018.5 0.0
02/08:30am 16.1 14.2 11.9 76 2.3 ENE 13 19 7 10 1018.4 1018.4 0.0
02/08:00am 15.1 13.5 11.5 79 1.9 ENE 11 15 6 8 1018.7 1018.7 0.0
02/07:30am 14.3 11.8 11.1 81 1.7 ENE 15 19 8 10 1018.7 1018.7 0.0
02/07:00am 14.3 12.2 11.3 82 1.6 ENE 13 17 7 9 1018.2 1018.2 0.0
02/06:30am 14.5 12.4 11.1 80 1.8 NE 13 19 7 10 1018.3 1018.3 0.0
02/06:00am 14.8 12.7 11.0 78 2.0 NE 13 17 7 9 1018.3 1018.3 0.0
02/05:30am 14.5 12.4 11.3 81 1.7 ENE 13 17 7 9 1017.9 1017.9 0.0
02/05:00am 13.9 12.1 9.5 75 2.2 ESE 9 15 5 8 1017.7 1017.7 0.0
02/04:30am 14.0 12.2 9.4 74 2.4 E 9 13 5 7 1017.7 1017.7 0.0
02/04:00am 14.0 13.4 8.8 71 2.6 SW 2 6 1 3 1018.1 1018.1 0.0
02/03:30am 14.5 14.2 8.7 68 2.9 CALM 0 4 0 2 1018.1 1018.1 0.0
02/03:00am 14.6 13.5 8.5 67 3.1 W 4 6 2 3 1018.6 1018.6 0.0
02/02:30am 13.6 12.4 8.2 70 2.7 WSW 4 6 2 3 1018.3 1018.3 0.0
02/02:00am 14.5 12.9 8.2 66 3.1 SW 6 9 3 5 1018.6 1018.6 0.0
02/01:30am 14.4 12.6 7.9 65 3.2 SW 7 13 4 7 1018.5 1018.5 0.0
02/01:00am 14.9 13.3 8.6 66 3.2 S 7 13 4 7 1018.2 1018.2 0.0
02/12:30am 15.0 13.1 9.1 68 3.0 S 9 15 5 8 1018.1 1018.1 0.0
02/12:00am 15.3 13.9 9.0 66 3.2 SSW 6 11 3 6 1018.2 1018.2 0.0
 
Date/Time
EDT
Tmp

°C
App
Tmp
°C
Dew
Point
°C
Rel
Hum
%
Delta-T

°C
Wind Press
QNH
hPa
Press
MSL
hPa
Rain
since
9 am
mm
Dir
 
Spd
km/h
Gust
km/h
Spd
kts
Gust
kts
01/11:30pm 15.8 14.1 9.9 68 3.1 S 9 15 5 8 1018.3 1018.3 0.0
01/11:00pm 16.2 14.2 10.1 67 3.2 SSW 11 19 6 10 1018.4 1018.4 0.0
01/10:30pm 16.1 14.6 10.6 70 2.9 S 9 17 5 9 1018.4 1018.4 0.0
01/10:00pm 16.4 14.5 10.5 68 3.1 SSW 11 19 6 10 1018.3 1018.3 0.0
01/09:30pm 16.4 15.4 10.9 70 2.9 S 7 15 4 8 1018.2 1018.2 0.0
01/09:00pm 16.4 14.9 10.7 69 3.0 S 9 19 5 10 1018.0 1018.0 0.0
01/08:30pm 16.2 14.8 10.9 71 2.8 S 9 13 5 7 1017.5 1017.5 0.0
01/08:00pm 16.5 14.8 11.2 71 2.8 S 11 19 6 10 1017.5 1017.5 0.0
01/07:30pm 16.7 14.9 11.0 69 3.1 S 11 19 6 10 1017.5 1017.5 0.0
01/07:00pm 17.7 15.6 11.0 65 3.6 S 13 20 7 11 1017.1 1017.1 0.0
01/06:30pm 18.1 16.2 11.9 67 3.4 S 13 22 7 12 1016.9 1016.9 0.0

Latest Capital City Observations: Canberra | Sydney | Melbourne | Brisbane | Adelaide | Perth | Hobart | Darwin

Other Formats:

Comma delimited format used in spreadsheet applications
http://www.bom.gov.au/fwo/IDV60901/IDV60901.94892.axf

JavaScript Object Notation format (JSON) in row-major order
http://www.bom.gov.au/fwo/IDV60901/IDV60901.94892.json